sensor_id;sensor_type;location;lat;lon;timestamp;P1;durP1;ratioP1;P2;durP2;ratioP2
17380;SDS011;8808;52.478;13.378;2023-07-28T00:02:16;1.73;;;1.63;;
17380;SDS011;8808;52.478;13.378;2023-07-28T00:04:43;3.17;;;1.60;;
17380;SDS011;8808;52.478;13.378;2023-07-28T00:07:10;2.30;;;1.93;;
17380;SDS011;8808;52.478;13.378;2023-07-28T00:09:37;3.07;;;2.17;;
17380;SDS011;8808;52.478;13.378;2023-07-28T00:12:04;3.07;;;2.40;;
17380;SDS011;8808;52.478;13.378;2023-07-28T00:14:32;3.40;;;2.33;;
17380;SDS011;8808;52.478;13.378;2023-07-28T00:17:00;4.03;;;2.33;;
17380;SDS011;8808;52.478;13.378;2023-07-28T00:19:27;2.53;;;2.03;;
17380;SDS011;8808;52.478;13.378;2023-07-28T00:21:54;3.83;;;2.80;;
17380;SDS011;8808;52.478;13.378;2023-07-28T00:24:21;6.33;;;2.80;;
17380;SDS011;8808;52.478;13.378;2023-07-28T00:26:48;3.83;;;2.93;;
17380;SDS011;8808;52.478;13.378;2023-07-28T00:29:15;6.13;;;3.00;;
17380;SDS011;8808;52.478;13.378;2023-07-28T00:31:42;5.33;;;2.77;;
17380;SDS011;8808;52.478;13.378;2023-07-28T00:34:11;3.67;;;2.53;;
17380;SDS011;8808;52.478;13.378;2023-07-28T00:36:38;4.17;;;2.93;;
17380;SDS011;8808;52.478;13.378;2023-07-28T00:39:06;3.53;;;2.90;;
17380;SDS011;8808;52.478;13.378;2023-07-28T00:41:33;4.57;;;2.77;;
17380;SDS011;8808;52.478;13.378;2023-07-28T00:43:59;3.50;;;2.60;;
17380;SDS011;8808;52.478;13.378;2023-07-28T00:46:26;9.50;;;2.53;;
17380;SDS011;8808;52.478;13.378;2023-07-28T00:48:53;3.77;;;2.73;;
17380;SDS011;8808;52.478;13.378;2023-07-28T00:51:22;5.83;;;2.63;;
17380;SDS011;8808;52.478;13.378;2023-07-28T00:53:49;4.17;;;2.07;;
17380;SDS011;8808;52.478;13.378;2023-07-28T00:56:18;4.87;;;2.57;;
17380;SDS011;8808;52.478;13.378;2023-07-28T00:58:46;3.23;;;2.50;;
17380;SDS011;8808;52.478;13.378;2023-07-28T01:03:49;3.10;;;2.30;;
17380;SDS011;8808;52.478;13.378;2023-07-28T01:06:18;3.03;;;2.20;;
17380;SDS011;8808;52.478;13.378;2023-07-28T01:08:54;3.87;;;2.10;;
17380;SDS011;8808;52.478;13.378;2023-07-28T01:11:25;6.17;;;2.30;;
17380;SDS011;8808;52.478;13.378;2023-07-28T01:13:52;6.50;;;3.00;;
17380;SDS011;8808;52.478;13.378;2023-07-28T01:16:19;2.73;;;2.27;;
17380;SDS011;8808;52.478;13.378;2023-07-28T01:18:46;3.63;;;2.30;;
17380;SDS011;8808;52.478;13.378;2023-07-28T01:21:14;4.60;;;1.97;;
17380;SDS011;8808;52.478;13.378;2023-07-28T01:23:51;3.80;;;2.50;;
17380;SDS011;8808;52.478;13.378;2023-07-28T01:26:28;4.00;;;2.23;;
17380;SDS011;8808;52.478;13.378;2023-07-28T01:28:59;3.60;;;2.10;;
17380;SDS011;8808;52.478;13.378;2023-07-28T01:31:26;3.00;;;2.23;;
17380;SDS011;8808;52.478;13.378;2023-07-28T01:33:54;3.27;;;2.43;;
17380;SDS011;8808;52.478;13.378;2023-07-28T01:36:20;3.63;;;2.33;;
17380;SDS011;8808;52.478;13.378;2023-07-28T01:38:47;3.20;;;2.37;;
17380;SDS011;8808;52.478;13.378;2023-07-28T01:41:14;3.90;;;2.60;;
17380;SDS011;8808;52.478;13.378;2023-07-28T01:43:43;4.87;;;2.30;;
17380;SDS011;8808;52.478;13.378;2023-07-28T01:46:10;5.83;;;2.13;;
17380;SDS011;8808;52.478;13.378;2023-07-28T01:48:37;3.53;;;2.27;;
17380;SDS011;8808;52.478;13.378;2023-07-28T01:51:04;3.53;;;2.23;;
17380;SDS011;8808;52.478;13.378;2023-07-28T01:53:31;3.90;;;2.10;;
17380;SDS011;8808;52.478;13.378;2023-07-28T01:55:58;6.63;;;1.83;;
17380;SDS011;8808;52.478;13.378;2023-07-28T01:58:26;2.73;;;2.03;;
17380;SDS011;8808;52.478;13.378;2023-07-28T02:00:54;3.00;;;2.10;;
17380;SDS011;8808;52.478;13.378;2023-07-28T02:03:21;4.10;;;2.20;;
17380;SDS011;8808;52.478;13.378;2023-07-28T02:05:48;4.30;;;2.53;;
17380;SDS011;8808;52.478;13.378;2023-07-28T02:08:15;2.93;;;2.23;;
17380;SDS011;8808;52.478;13.378;2023-07-28T02:10:43;4.37;;;2.47;;
17380;SDS011;8808;52.478;13.378;2023-07-28T02:13:11;5.57;;;2.40;;
17380;SDS011;8808;52.478;13.378;2023-07-28T02:15:38;5.27;;;2.50;;
17380;SDS011;8808;52.478;13.378;2023-07-28T02:18:06;4.53;;;2.63;;
17380;SDS011;8808;52.478;13.378;2023-07-28T02:20:33;4.03;;;2.23;;
17380;SDS011;8808;52.478;13.378;2023-07-28T02:23:01;4.63;;;2.70;;
17380;SDS011;8808;52.478;13.378;2023-07-28T02:25:28;7.30;;;2.80;;
17380;SDS011;8808;52.478;13.378;2023-07-28T02:27:55;4.10;;;2.47;;
17380;SDS011;8808;52.478;13.378;2023-07-28T02:30:22;3.00;;;2.37;;
17380;SDS011;8808;52.478;13.378;2023-07-28T02:32:49;6.60;;;2.50;;
17380;SDS011;8808;52.478;13.378;2023-07-28T02:35:17;5.53;;;2.53;;
17380;SDS011;8808;52.478;13.378;2023-07-28T02:37:44;6.90;;;2.93;;
17380;SDS011;8808;52.478;13.378;2023-07-28T02:40:11;6.00;;;2.83;;
17380;SDS011;8808;52.478;13.378;2023-07-28T02:42:39;5.67;;;2.83;;
17380;SDS011;8808;52.478;13.378;2023-07-28T02:45:06;4.87;;;2.60;;
17380;SDS011;8808;52.478;13.378;2023-07-28T02:47:35;9.83;;;3.23;;
17380;SDS011;8808;52.478;13.378;2023-07-28T02:50:02;8.87;;;2.90;;
17380;SDS011;8808;52.478;13.378;2023-07-28T02:52:31;7.17;;;2.90;;
17380;SDS011;8808;52.478;13.378;2023-07-28T02:54:58;5.80;;;3.10;;
17380;SDS011;8808;52.478;13.378;2023-07-28T02:57:25;8.37;;;3.07;;
17380;SDS011;8808;52.478;13.378;2023-07-28T02:59:52;5.83;;;2.80;;
17380;SDS011;8808;52.478;13.378;2023-07-28T03:02:18;5.10;;;3.03;;
17380;SDS011;8808;52.478;13.378;2023-07-28T03:04:46;6.13;;;3.10;;
17380;SDS011;8808;52.478;13.378;2023-07-28T03:07:12;5.93;;;2.73;;
17380;SDS011;8808;52.478;13.378;2023-07-28T03:09:41;7.27;;;2.97;;
17380;SDS011;8808;52.478;13.378;2023-07-28T03:12:08;9.40;;;3.17;;
17380;SDS011;8808;52.478;13.378;2023-07-28T03:14:35;6.13;;;3.17;;
17380;SDS011;8808;52.478;13.378;2023-07-28T03:17:02;6.40;;;3.00;;
17380;SDS011;8808;52.478;13.378;2023-07-28T03:19:29;5.53;;;2.90;;
17380;SDS011;8808;52.478;13.378;2023-07-28T03:21:56;10.00;;;3.20;;
17380;SDS011;8808;52.478;13.378;2023-07-28T03:24:23;8.03;;;3.30;;
17380;SDS011;8808;52.478;13.378;2023-07-28T03:26:52;6.67;;;3.00;;
17380;SDS011;8808;52.478;13.378;2023-07-28T03:29:19;5.33;;;2.97;;
17380;SDS011;8808;52.478;13.378;2023-07-28T03:31:46;6.40;;;3.07;;
17380;SDS011;8808;52.478;13.378;2023-07-28T03:34:13;10.83;;;3.47;;
17380;SDS011;8808;52.478;13.378;2023-07-28T03:36:40;5.77;;;2.73;;
17380;SDS011;8808;52.478;13.378;2023-07-28T03:39:07;7.77;;;3.50;;
17380;SDS011;8808;52.478;13.378;2023-07-28T03:41:33;6.80;;;3.50;;
17380;SDS011;8808;52.478;13.378;2023-07-28T03:44:02;5.77;;;3.27;;
17380;SDS011;8808;52.478;13.378;2023-07-28T03:46:29;7.43;;;3.50;;
17380;SDS011;8808;52.478;13.378;2023-07-28T03:48:56;6.23;;;3.63;;
17380;SDS011;8808;52.478;13.378;2023-07-28T03:51:25;6.67;;;3.60;;
17380;SDS011;8808;52.478;13.378;2023-07-28T03:53:52;8.43;;;3.33;;
17380;SDS011;8808;52.478;13.378;2023-07-28T03:56:19;6.90;;;3.50;;
17380;SDS011;8808;52.478;13.378;2023-07-28T03:58:45;8.03;;;3.43;;
17380;SDS011;8808;52.478;13.378;2023-07-28T04:01:14;9.67;;;3.67;;
17380;SDS011;8808;52.478;13.378;2023-07-28T04:03:41;9.10;;;3.93;;
17380;SDS011;8808;52.478;13.378;2023-07-28T04:06:09;8.43;;;4.50;;
17380;SDS011;8808;52.478;13.378;2023-07-28T04:08:37;8.63;;;3.30;;
17380;SDS011;8808;52.478;13.378;2023-07-28T04:11:04;8.03;;;3.97;;
17380;SDS011;8808;52.478;13.378;2023-07-28T04:13:31;13.13;;;4.33;;
17380;SDS011;8808;52.478;13.378;2023-07-28T04:15:59;8.60;;;4.00;;
17380;SDS011;8808;52.478;13.378;2023-07-28T04:18:27;8.57;;;3.93;;
17380;SDS011;8808;52.478;13.378;2023-07-28T04:20:54;7.73;;;4.07;;
17380;SDS011;8808;52.478;13.378;2023-07-28T04:23:21;8.80;;;4.00;;
17380;SDS011;8808;52.478;13.378;2023-07-28T04:25:48;9.10;;;4.27;;
17380;SDS011;8808;52.478;13.378;2023-07-28T04:28:15;8.80;;;4.33;;
17380;SDS011;8808;52.478;13.378;2023-07-28T04:30:42;7.73;;;4.27;;
17380;SDS011;8808;52.478;13.378;2023-07-28T04:33:09;7.87;;;4.10;;
17380;SDS011;8808;52.478;13.378;2023-07-28T04:35:37;8.83;;;4.77;;
17380;SDS011;8808;52.478;13.378;2023-07-28T04:38:04;9.93;;;4.37;;
17380;SDS011;8808;52.478;13.378;2023-07-28T04:40:31;13.03;;;5.53;;
17380;SDS011;8808;52.478;13.378;2023-07-28T04:42:58;8.23;;;4.37;;
17380;SDS011;8808;52.478;13.378;2023-07-28T04:45:24;9.53;;;5.17;;
17380;SDS011;8808;52.478;13.378;2023-07-28T04:47:51;13.10;;;4.83;;
17380;SDS011;8808;52.478;13.378;2023-07-28T04:50:19;12.23;;;5.10;;
17380;SDS011;8808;52.478;13.378;2023-07-28T04:52:47;9.90;;;5.20;;
17380;SDS011;8808;52.478;13.378;2023-07-28T04:55:14;8.20;;;4.57;;
17380;SDS011;8808;52.478;13.378;2023-07-28T04:57:41;8.43;;;4.57;;
17380;SDS011;8808;52.478;13.378;2023-07-28T05:00:08;8.97;;;4.67;;
17380;SDS011;8808;52.478;13.378;2023-07-28T05:02:36;9.97;;;5.33;;
17380;SDS011;8808;52.478;13.378;2023-07-28T05:05:03;11.60;;;4.77;;
17380;SDS011;8808;52.478;13.378;2023-07-28T05:07:30;7.47;;;4.30;;
17380;SDS011;8808;52.478;13.378;2023-07-28T05:09:58;10.07;;;4.90;;
17380;SDS011;8808;52.478;13.378;2023-07-28T05:12:25;8.10;;;4.50;;
17380;SDS011;8808;52.478;13.378;2023-07-28T05:14:52;8.63;;;4.73;;
17380;SDS011;8808;52.478;13.378;2023-07-28T05:17:19;8.50;;;5.07;;
17380;SDS011;8808;52.478;13.378;2023-07-28T05:19:46;10.57;;;5.03;;
17380;SDS011;8808;52.478;13.378;2023-07-28T05:22:14;10.97;;;5.30;;
17380;SDS011;8808;52.478;13.378;2023-07-28T05:24:40;9.57;;;4.53;;
17380;SDS011;8808;52.478;13.378;2023-07-28T05:27:10;8.27;;;5.10;;
17380;SDS011;8808;52.478;13.378;2023-07-28T05:29:37;11.33;;;5.03;;
17380;SDS011;8808;52.478;13.378;2023-07-28T05:32:05;9.03;;;5.03;;
17380;SDS011;8808;52.478;13.378;2023-07-28T05:34:32;9.77;;;5.40;;
17380;SDS011;8808;52.478;13.378;2023-07-28T05:36:59;12.10;;;4.23;;
17380;SDS011;8808;52.478;13.378;2023-07-28T05:39:26;7.50;;;3.60;;
17380;SDS011;8808;52.478;13.378;2023-07-28T05:41:53;12.27;;;4.30;;
17380;SDS011;8808;52.478;13.378;2023-07-28T05:44:22;8.97;;;4.87;;
17380;SDS011;8808;52.478;13.378;2023-07-28T05:46:49;10.10;;;4.87;;
17380;SDS011;8808;52.478;13.378;2023-07-28T05:49:15;8.97;;;4.27;;
17380;SDS011;8808;52.478;13.378;2023-07-28T05:51:42;7.00;;;3.90;;
17380;SDS011;8808;52.478;13.378;2023-07-28T05:54:11;8.17;;;4.27;;
17380;SDS011;8808;52.478;13.378;2023-07-28T05:56:39;11.50;;;4.30;;
17380;SDS011;8808;52.478;13.378;2023-07-28T05:59:06;8.43;;;4.73;;
17380;SDS011;8808;52.478;13.378;2023-07-28T06:01:35;8.83;;;4.03;;
17380;SDS011;8808;52.478;13.378;2023-07-28T06:04:02;9.47;;;4.20;;
17380;SDS011;8808;52.478;13.378;2023-07-28T06:06:29;8.50;;;4.00;;
17380;SDS011;8808;52.478;13.378;2023-07-28T06:08:56;9.67;;;4.27;;
17380;SDS011;8808;52.478;13.378;2023-07-28T06:11:23;6.53;;;3.93;;
17380;SDS011;8808;52.478;13.378;2023-07-28T06:13:51;7.67;;;4.43;;
17380;SDS011;8808;52.478;13.378;2023-07-28T06:16:18;9.67;;;4.70;;
17380;SDS011;8808;52.478;13.378;2023-07-28T06:18:46;11.73;;;4.47;;
17380;SDS011;8808;52.478;13.378;2023-07-28T06:21:13;10.00;;;4.73;;
17380;SDS011;8808;52.478;13.378;2023-07-28T06:23:40;11.00;;;3.97;;
17380;SDS011;8808;52.478;13.378;2023-07-28T06:26:07;19.00;;;4.70;;
17380;SDS011;8808;52.478;13.378;2023-07-28T06:28:34;10.03;;;4.53;;
17380;SDS011;8808;52.478;13.378;2023-07-28T06:31:02;8.63;;;3.57;;
17380;SDS011;8808;52.478;13.378;2023-07-28T06:33:29;8.40;;;4.50;;
17380;SDS011;8808;52.478;13.378;2023-07-28T06:35:57;6.77;;;3.53;;
17380;SDS011;8808;52.478;13.378;2023-07-28T06:38:24;8.57;;;4.20;;
17380;SDS011;8808;52.478;13.378;2023-07-28T06:40:52;6.10;;;3.83;;
17380;SDS011;8808;52.478;13.378;2023-07-28T06:43:19;6.10;;;4.00;;
17380;SDS011;8808;52.478;13.378;2023-07-28T06:45:46;6.90;;;4.03;;
17380;SDS011;8808;52.478;13.378;2023-07-28T06:48:13;9.87;;;4.00;;
17380;SDS011;8808;52.478;13.378;2023-07-28T06:50:39;6.80;;;4.07;;
17380;SDS011;8808;52.478;13.378;2023-07-28T06:53:08;7.47;;;3.67;;
17380;SDS011;8808;52.478;13.378;2023-07-28T06:55:35;6.83;;;3.13;;
17380;SDS011;8808;52.478;13.378;2023-07-28T06:58:04;10.63;;;3.33;;
17380;SDS011;8808;52.478;13.378;2023-07-28T07:00:31;8.27;;;3.10;;
17380;SDS011;8808;52.478;13.378;2023-07-28T07:02:58;9.32;;;3.25;;
17380;SDS011;8808;52.478;13.378;2023-07-28T07:05:25;8.68;;;3.40;;
17380;SDS011;8808;52.478;13.378;2023-07-28T07:07:52;3.45;;;2.45;;
17380;SDS011;8808;52.478;13.378;2023-07-28T07:10:21;3.35;;;2.75;;
17380;SDS011;8808;52.478;13.378;2023-07-28T07:12:48;6.18;;;2.92;;
17380;SDS011;8808;52.478;13.378;2023-07-28T07:15:15;5.80;;;2.72;;
17380;SDS011;8808;52.478;13.378;2023-07-28T07:17:42;4.38;;;2.90;;
17380;SDS011;8808;52.478;13.378;2023-07-28T07:20:10;3.87;;;2.50;;
17380;SDS011;8808;52.478;13.378;2023-07-28T07:22:37;4.18;;;2.47;;
17380;SDS011;8808;52.478;13.378;2023-07-28T07:25:05;3.80;;;2.72;;
17380;SDS011;8808;52.478;13.378;2023-07-28T07:27:33;4.97;;;3.08;;
17380;SDS011;8808;52.478;13.378;2023-07-28T07:30:00;5.60;;;2.70;;
17380;SDS011;8808;52.478;13.378;2023-07-28T07:32:29;4.18;;;2.60;;
17380;SDS011;8808;52.478;13.378;2023-07-28T07:34:56;9.40;;;2.45;;
17380;SDS011;8808;52.478;13.378;2023-07-28T07:37:23;3.28;;;2.10;;
17380;SDS011;8808;52.478;13.378;2023-07-28T07:39:50;5.28;;;2.15;;
17380;SDS011;8808;52.478;13.378;2023-07-28T07:42:17;2.80;;;2.08;;
17380;SDS011;8808;52.478;13.378;2023-07-28T07:44:45;3.60;;;1.52;;
17380;SDS011;8808;52.478;13.378;2023-07-28T07:47:12;2.53;;;1.70;;
17380;SDS011;8808;52.478;13.378;2023-07-28T07:49:40;3.08;;;2.08;;
17380;SDS011;8808;52.478;13.378;2023-07-28T07:52:07;1.65;;;1.20;;
17380;SDS011;8808;52.478;13.378;2023-07-28T07:54:35;2.42;;;1.42;;
17380;SDS011;8808;52.478;13.378;2023-07-28T07:57:02;2.13;;;1.42;;
17380;SDS011;8808;52.478;13.378;2023-07-28T07:59:29;2.83;;;1.50;;
17380;SDS011;8808;52.478;13.378;2023-07-28T08:01:59;2.15;;;1.67;;
17380;SDS011;8808;52.478;13.378;2023-07-28T08:04:28;1.77;;;1.55;;
17380;SDS011;8808;52.478;13.378;2023-07-28T08:06:56;3.22;;;1.77;;
17380;SDS011;8808;52.478;13.378;2023-07-28T08:09:23;2.88;;;1.52;;
17380;SDS011;8808;52.478;13.378;2023-07-28T08:11:50;4.38;;;1.50;;
17380;SDS011;8808;52.478;13.378;2023-07-28T08:14:18;3.25;;;1.45;;
17380;SDS011;8808;52.478;13.378;2023-07-28T08:16:45;1.85;;;1.60;;
17380;SDS011;8808;52.478;13.378;2023-07-28T08:19:13;1.70;;;1.60;;
17380;SDS011;8808;52.478;13.378;2023-07-28T08:21:40;2.13;;;1.70;;
17380;SDS011;8808;52.478;13.378;2023-07-28T08:24:07;4.80;;;1.60;;
17380;SDS011;8808;52.478;13.378;2023-07-28T08:26:34;2.90;;;1.60;;
17380;SDS011;8808;52.478;13.378;2023-07-28T08:29:01;2.30;;;1.50;;
17380;SDS011;8808;52.478;13.378;2023-07-28T08:31:28;2.00;;;1.42;;
17380;SDS011;8808;52.478;13.378;2023-07-28T08:33:55;1.70;;;1.30;;
17380;SDS011;8808;52.478;13.378;2023-07-28T08:36:23;1.33;;;1.23;;
17380;SDS011;8808;52.478;13.378;2023-07-28T08:38:50;3.58;;;1.50;;
17380;SDS011;8808;52.478;13.378;2023-07-28T08:41:17;4.10;;;1.67;;
17380;SDS011;8808;52.478;13.378;2023-07-28T08:43:44;1.60;;;1.27;;
17380;SDS011;8808;52.478;13.378;2023-07-28T08:46:11;2.75;;;1.60;;
17380;SDS011;8808;52.478;13.378;2023-07-28T08:48:38;1.95;;;1.42;;
17380;SDS011;8808;52.478;13.378;2023-07-28T08:51:05;1.60;;;1.30;;
17380;SDS011;8808;52.478;13.378;2023-07-28T08:53:35;3.35;;;1.70;;
17380;SDS011;8808;52.478;13.378;2023-07-28T08:56:02;2.50;;;1.60;;
17380;SDS011;8808;52.478;13.378;2023-07-28T08:58:29;2.70;;;1.90;;
17380;SDS011;8808;52.478;13.378;2023-07-28T09:00:56;1.60;;;1.23;;
17380;SDS011;8808;52.478;13.378;2023-07-28T09:03:26;3.30;;;1.63;;
17380;SDS011;8808;52.478;13.378;2023-07-28T09:05:54;2.20;;;1.70;;
17380;SDS011;8808;52.478;13.378;2023-07-28T09:08:26;2.70;;;1.77;;
17380;SDS011;8808;52.478;13.378;2023-07-28T09:10:54;2.03;;;1.50;;
17380;SDS011;8808;52.478;13.378;2023-07-28T09:13:22;3.05;;;1.65;;
17380;SDS011;8808;52.478;13.378;2023-07-28T09:15:49;1.70;;;1.55;;
17380;SDS011;8808;52.478;13.378;2023-07-28T09:18:16;1.42;;;1.33;;
17380;SDS011;8808;52.478;13.378;2023-07-28T09:20:43;1.67;;;1.58;;
17380;SDS011;8808;52.478;13.378;2023-07-28T09:23:12;1.50;;;1.40;;
17380;SDS011;8808;52.478;13.378;2023-07-28T09:25:41;1.65;;;1.40;;
17380;SDS011;8808;52.478;13.378;2023-07-28T09:28:09;1.60;;;1.50;;
17380;SDS011;8808;52.478;13.378;2023-07-28T09:30:44;1.60;;;1.50;;
17380;SDS011;8808;52.478;13.378;2023-07-28T09:33:12;1.98;;;1.70;;
17380;SDS011;8808;52.478;13.378;2023-07-28T09:35:49;2.67;;;1.80;;
17380;SDS011;8808;52.478;13.378;2023-07-28T09:38:17;3.83;;;1.70;;
17380;SDS011;8808;52.478;13.378;2023-07-28T09:40:45;2.85;;;1.70;;
17380;SDS011;8808;52.478;13.378;2023-07-28T09:43:14;1.92;;;1.73;;
17380;SDS011;8808;52.478;13.378;2023-07-28T09:45:42;3.25;;;2.00;;
17380;SDS011;8808;52.478;13.378;2023-07-28T09:48:10;2.17;;;1.70;;
17380;SDS011;8808;52.478;13.378;2023-07-28T09:50:38;4.82;;;1.45;;
17380;SDS011;8808;52.478;13.378;2023-07-28T09:53:08;2.50;;;2.10;;
17380;SDS011;8808;52.478;13.378;2023-07-28T09:55:38;2.13;;;1.90;;
17380;SDS011;8808;52.478;13.378;2023-07-28T09:58:08;1.75;;;1.65;;
17380;SDS011;8808;52.478;13.378;2023-07-28T10:00:38;2.03;;;1.63;;
17380;SDS011;8808;52.478;13.378;2023-07-28T10:03:06;2.60;;;1.98;;
17380;SDS011;8808;52.478;13.378;2023-07-28T10:05:34;2.70;;;1.65;;
17380;SDS011;8808;52.478;13.378;2023-07-28T10:08:02;2.28;;;1.70;;
17380;SDS011;8808;52.478;13.378;2023-07-28T10:10:30;2.95;;;2.00;;
17380;SDS011;8808;52.478;13.378;2023-07-28T10:12:58;3.22;;;1.63;;
17380;SDS011;8808;52.478;13.378;2023-07-28T10:15:27;4.47;;;1.70;;
17380;SDS011;8808;52.478;13.378;2023-07-28T10:17:57;2.10;;;1.80;;
17380;SDS011;8808;52.478;13.378;2023-07-28T10:20:29;1.90;;;1.70;;
17380;SDS011;8808;52.478;13.378;2023-07-28T10:23:03;2.30;;;1.80;;
17380;SDS011;8808;52.478;13.378;2023-07-28T10:25:33;2.53;;;1.83;;
17380;SDS011;8808;52.478;13.378;2023-07-28T10:28:01;4.50;;;1.50;;
17380;SDS011;8808;52.478;13.378;2023-07-28T10:30:29;1.73;;;1.50;;
17380;SDS011;8808;52.478;13.378;2023-07-28T10:33:06;1.60;;;1.50;;
17380;SDS011;8808;52.478;13.378;2023-07-28T10:35:34;4.15;;;1.60;;
17380;SDS011;8808;52.478;13.378;2023-07-28T10:41:04;2.13;;;1.83;;
17380;SDS011;8808;52.478;13.378;2023-07-28T10:43:31;2.50;;;2.08;;
17380;SDS011;8808;52.478;13.378;2023-07-28T10:45:59;2.97;;;2.20;;
17380;SDS011;8808;52.478;13.378;2023-07-28T10:48:27;2.97;;;2.22;;
17380;SDS011;8808;52.478;13.378;2023-07-28T10:50:54;2.65;;;2.15;;
17380;SDS011;8808;52.478;13.378;2023-07-28T10:53:21;4.15;;;1.83;;
17380;SDS011;8808;52.478;13.378;2023-07-28T10:55:48;5.65;;;1.95;;
17380;SDS011;8808;52.478;13.378;2023-07-28T10:58:16;2.97;;;2.10;;
17380;SDS011;8808;52.478;13.378;2023-07-28T11:00:42;5.90;;;2.10;;
17380;SDS011;8808;52.478;13.378;2023-07-28T11:03:09;1.55;;;1.45;;
17380;SDS011;8808;52.478;13.378;2023-07-28T11:05:40;5.55;;;1.80;;
17380;SDS011;8808;52.478;13.378;2023-07-28T11:08:07;4.30;;;1.63;;
17380;SDS011;8808;52.478;13.378;2023-07-28T11:10:34;2.90;;;2.20;;
17380;SDS011;8808;52.478;13.378;2023-07-28T11:13:02;4.28;;;2.50;;
17380;SDS011;8808;52.478;13.378;2023-07-28T11:15:30;3.05;;;1.73;;
17380;SDS011;8808;52.478;13.378;2023-07-28T11:17:58;2.15;;;1.95;;
17380;SDS011;8808;52.478;13.378;2023-07-28T11:20:25;2.67;;;2.05;;
17380;SDS011;8808;52.478;13.378;2023-07-28T11:22:55;2.33;;;1.88;;
17380;SDS011;8808;52.478;13.378;2023-07-28T11:25:25;2.72;;;1.90;;
17380;SDS011;8808;52.478;13.378;2023-07-28T11:27:53;3.05;;;1.60;;
17380;SDS011;8808;52.478;13.378;2023-07-28T11:30:20;1.80;;;1.40;;
17380;SDS011;8808;52.478;13.378;2023-07-28T11:32:48;4.28;;;1.73;;
17380;SDS011;8808;52.478;13.378;2023-07-28T11:35:17;6.07;;;1.67;;
17380;SDS011;8808;52.478;13.378;2023-07-28T11:37:45;2.45;;;1.60;;
17380;SDS011;8808;52.478;13.378;2023-07-28T11:40:17;2.80;;;1.58;;
17380;SDS011;8808;52.478;13.378;2023-07-28T11:42:46;2.35;;;1.67;;
17380;SDS011;8808;52.478;13.378;2023-07-28T11:45:16;3.45;;;1.73;;
17380;SDS011;8808;52.478;13.378;2023-07-28T11:50:34;4.82;;;1.75;;
17380;SDS011;8808;52.478;13.378;2023-07-28T11:53:03;2.65;;;2.17;;
17380;SDS011;8808;52.478;13.378;2023-07-28T11:55:32;3.60;;;2.22;;
17380;SDS011;8808;52.478;13.378;2023-07-28T11:58:01;3.30;;;2.17;;
17380;SDS011;8808;52.478;13.378;2023-07-28T12:00:29;3.60;;;2.10;;
17380;SDS011;8808;52.478;13.378;2023-07-28T12:03:03;6.60;;;2.35;;
17380;SDS011;8808;52.478;13.378;2023-07-28T12:05:31;3.38;;;2.05;;
17380;SDS011;8808;52.478;13.378;2023-07-28T12:08:00;4.55;;;2.03;;
17380;SDS011;8808;52.478;13.378;2023-07-28T12:10:28;2.88;;;1.70;;
17380;SDS011;8808;52.478;13.378;2023-07-28T12:12:58;4.03;;;2.40;;
17380;SDS011;8808;52.478;13.378;2023-07-28T12:15:30;3.22;;;1.77;;
17380;SDS011;8808;52.478;13.378;2023-07-28T12:18:04;2.90;;;1.88;;
17380;SDS011;8808;52.478;13.378;2023-07-28T12:20:34;2.60;;;1.88;;
17380;SDS011;8808;52.478;13.378;2023-07-28T12:23:03;2.90;;;1.70;;
17380;SDS011;8808;52.478;13.378;2023-07-28T12:25:30;1.95;;;1.35;;
17380;SDS011;8808;52.478;13.378;2023-07-28T12:27:59;2.80;;;1.45;;
17380;SDS011;8808;52.478;13.378;2023-07-28T12:30:26;1.83;;;1.60;;
17380;SDS011;8808;52.478;13.378;2023-07-28T12:32:53;1.65;;;1.48;;
17380;SDS011;8808;52.478;13.378;2023-07-28T12:35:20;2.90;;;1.90;;
17380;SDS011;8808;52.478;13.378;2023-07-28T12:37:48;3.78;;;1.67;;
17380;SDS011;8808;52.478;13.378;2023-07-28T12:40:16;4.63;;;1.65;;
17380;SDS011;8808;52.478;13.378;2023-07-28T12:42:44;4.72;;;2.22;;
17380;SDS011;8808;52.478;13.378;2023-07-28T12:45:12;2.15;;;1.70;;
17380;SDS011;8808;52.478;13.378;2023-07-28T12:47:40;2.58;;;1.80;;
17380;SDS011;8808;52.478;13.378;2023-07-28T12:50:08;1.90;;;1.70;;
17380;SDS011;8808;52.478;13.378;2023-07-28T12:52:36;3.20;;;1.98;;
17380;SDS011;8808;52.478;13.378;2023-07-28T12:55:03;4.07;;;2.05;;
17380;SDS011;8808;52.478;13.378;2023-07-28T12:57:31;2.10;;;1.75;;
17380;SDS011;8808;52.478;13.378;2023-07-28T12:59:58;2.10;;;1.67;;
17380;SDS011;8808;52.478;13.378;2023-07-28T13:02:27;2.08;;;1.65;;
17380;SDS011;8808;52.478;13.378;2023-07-28T13:04:54;1.85;;;1.55;;
17380;SDS011;8808;52.478;13.378;2023-07-28T13:07:21;2.55;;;1.80;;
17380;SDS011;8808;52.478;13.378;2023-07-28T13:09:47;2.13;;;1.55;;
17380;SDS011;8808;52.478;13.378;2023-07-28T13:12:14;2.28;;;1.60;;
17380;SDS011;8808;52.478;13.378;2023-07-28T13:14:41;2.22;;;1.90;;
17380;SDS011;8808;52.478;13.378;2023-07-28T13:17:08;1.90;;;1.60;;
17380;SDS011;8808;52.478;13.378;2023-07-28T13:19:38;3.10;;;1.90;;
17380;SDS011;8808;52.478;13.378;2023-07-28T13:22:05;2.00;;;1.52;;
17380;SDS011;8808;52.478;13.378;2023-07-28T13:24:32;2.80;;;1.90;;
17380;SDS011;8808;52.478;13.378;2023-07-28T13:26:59;3.08;;;1.90;;
17380;SDS011;8808;52.478;13.378;2023-07-28T13:29:26;2.28;;;1.88;;
17380;SDS011;8808;52.478;13.378;2023-07-28T13:31:57;3.03;;;2.13;;
17380;SDS011;8808;52.478;13.378;2023-07-28T13:34:25;2.05;;;1.30;;
17380;SDS011;8808;52.478;13.378;2023-07-28T13:36:54;3.58;;;1.73;;
17380;SDS011;8808;52.478;13.378;2023-07-28T13:39:21;1.88;;;1.30;;
17380;SDS011;8808;52.478;13.378;2023-07-28T13:41:49;2.08;;;1.40;;
17380;SDS011;8808;52.478;13.378;2023-07-28T13:44:16;4.20;;;1.80;;
17380;SDS011;8808;52.478;13.378;2023-07-28T13:46:43;2.08;;;1.38;;
17380;SDS011;8808;52.478;13.378;2023-07-28T13:49:10;4.15;;;1.52;;
17380;SDS011;8808;52.478;13.378;2023-07-28T13:51:37;2.60;;;1.50;;
17380;SDS011;8808;52.478;13.378;2023-07-28T13:54:05;2.40;;;1.60;;
17380;SDS011;8808;52.478;13.378;2023-07-28T13:56:32;1.30;;;0.93;;
17380;SDS011;8808;52.478;13.378;2023-07-28T13:58:59;2.13;;;1.70;;
17380;SDS011;8808;52.478;13.378;2023-07-28T14:01:26;4.18;;;1.50;;
17380;SDS011;8808;52.478;13.378;2023-07-28T14:03:53;2.22;;;1.52;;
17380;SDS011;8808;52.478;13.378;2023-07-28T14:06:20;1.33;;;1.10;;
17380;SDS011;8808;52.478;13.378;2023-07-28T14:08:47;2.35;;;1.23;;
17380;SDS011;8808;52.478;13.378;2023-07-28T14:11:16;1.40;;;1.00;;
17380;SDS011;8808;52.478;13.378;2023-07-28T14:13:42;2.50;;;1.20;;
17380;SDS011;8808;52.478;13.378;2023-07-28T14:16:09;2.25;;;1.60;;
17380;SDS011;8808;52.478;13.378;2023-07-28T14:18:37;2.15;;;1.25;;
17380;SDS011;8808;52.478;13.378;2023-07-28T14:21:05;2.40;;;1.60;;
17380;SDS011;8808;52.478;13.378;2023-07-28T14:23:32;1.67;;;1.42;;
17380;SDS011;8808;52.478;13.378;2023-07-28T14:25:59;9.50;;;1.80;;
17380;SDS011;8808;52.478;13.378;2023-07-28T14:28:28;1.75;;;1.40;;
17380;SDS011;8808;52.478;13.378;2023-07-28T14:30:55;6.72;;;1.65;;
17380;SDS011;8808;52.478;13.378;2023-07-28T14:33:22;4.40;;;1.88;;
17380;SDS011;8808;52.478;13.378;2023-07-28T14:35:49;3.38;;;1.73;;
17380;SDS011;8808;52.478;13.378;2023-07-28T14:38:16;3.17;;;1.67;;
17380;SDS011;8808;52.478;13.378;2023-07-28T14:40:44;3.60;;;1.25;;
17380;SDS011;8808;52.478;13.378;2023-07-28T14:43:13;3.42;;;1.20;;
17380;SDS011;8808;52.478;13.378;2023-07-28T14:45:42;2.55;;;1.45;;
17380;SDS011;8808;52.478;13.378;2023-07-28T14:48:09;4.28;;;1.52;;
17380;SDS011;8808;52.478;13.378;2023-07-28T14:50:36;4.45;;;1.70;;
17380;SDS011;8808;52.478;13.378;2023-07-28T14:53:27;4.00;;;1.63;;
17380;SDS011;8808;52.478;13.378;2023-07-28T14:55:54;1.88;;;1.50;;
17380;SDS011;8808;52.478;13.378;2023-07-28T14:58:21;4.95;;;1.70;;
17380;SDS011;8808;52.478;13.378;2023-07-28T15:00:50;4.10;;;1.80;;